sensor_id;sensor_type;location;lat;lon;timestamp;temperature;humidity
9193;DHT22;4631;49.296;10.560;2023-11-21T00:00:33;7.40;99.90
9193;DHT22;4631;49.296;10.560;2023-11-21T00:03:00;7.40;99.90
9193;DHT22;4631;49.296;10.560;2023-11-21T00:05:27;7.30;99.90
9193;DHT22;4631;49.296;10.560;2023-11-21T00:07:54;7.30;99.90
9193;DHT22;4631;49.296;10.560;2023-11-21T00:10:22;7.30;99.90
9193;DHT22;4631;49.296;10.560;2023-11-21T00:12:48;7.30;99.90
9193;DHT22;4631;49.296;10.560;2023-11-21T00:15:15;7.30;99.90
9193;DHT22;4631;49.296;10.560;2023-11-21T00:17:41;7.40;99.90
9193;DHT22;4631;49.296;10.560;2023-11-21T00:20:09;7.40;99.90
9193;DHT22;4631;49.296;10.560;2023-11-21T00:22:38;7.40;99.90
9193;DHT22;4631;49.296;10.560;2023-11-21T00:25:05;7.30;99.90
9193;DHT22;4631;49.296;10.560;2023-11-21T00:27:35;7.30;99.90
9193;DHT22;4631;49.296;10.560;2023-11-21T00:30:02;7.30;99.90
9193;DHT22;4631;49.296;10.560;2023-11-21T00:32:30;7.30;99.90
9193;DHT22;4631;49.296;10.560;2023-11-21T00:34:57;7.30;99.90
9193;DHT22;4631;49.296;10.560;2023-11-21T00:37:24;7.30;99.90
9193;DHT22;4631;49.296;10.560;2023-11-21T00:39:51;7.30;99.90
9193;DHT22;4631;49.296;10.560;2023-11-21T00:42:18;7.20;99.90
9193;DHT22;4631;49.296;10.560;2023-11-21T00:44:46;7.20;99.90
9193;DHT22;4631;49.296;10.560;2023-11-21T00:47:12;7.20;99.90
9193;DHT22;4631;49.296;10.560;2023-11-21T00:49:39;7.20;99.90
9193;DHT22;4631;49.296;10.560;2023-11-21T00:52:06;7.30;99.90
9193;DHT22;4631;49.296;10.560;2023-11-21T00:54:32;7.20;99.90
9193;DHT22;4631;49.296;10.560;2023-11-21T00:56:59;7.20;99.90
9193;DHT22;4631;49.296;10.560;2023-11-21T00:59:26;7.20;99.90
9193;DHT22;4631;49.296;10.560;2023-11-21T01:01:54;7.30;99.90
9193;DHT22;4631;49.296;10.560;2023-11-21T01:04:21;7.20;99.90
9193;DHT22;4631;49.296;10.560;2023-11-21T01:06:47;7.20;99.90
9193;DHT22;4631;49.296;10.560;2023-11-21T01:09:14;7.30;99.90
9193;DHT22;4631;49.296;10.560;2023-11-21T01:11:43;7.30;99.90
9193;DHT22;4631;49.296;10.560;2023-11-21T01:14:10;7.30;99.90
9193;DHT22;4631;49.296;10.560;2023-11-21T01:16:38;7.30;99.90
9193;DHT22;4631;49.296;10.560;2023-11-21T01:19:06;7.30;99.90
9193;DHT22;4631;49.296;10.560;2023-11-21T01:21:34;7.30;99.90
9193;DHT22;4631;49.296;10.560;2023-11-21T01:24:01;7.30;99.90
9193;DHT22;4631;49.296;10.560;2023-11-21T01:26:28;7.30;99.90
9193;DHT22;4631;49.296;10.560;2023-11-21T01:28:54;7.40;99.90
9193;DHT22;4631;49.296;10.560;2023-11-21T01:31:21;7.40;99.90
9193;DHT22;4631;49.296;10.560;2023-11-21T01:33:48;7.30;99.90
9193;DHT22;4631;49.296;10.560;2023-11-21T01:36:16;7.40;99.90
9193;DHT22;4631;49.296;10.560;2023-11-21T01:38:42;7.40;99.90
9193;DHT22;4631;49.296;10.560;2023-11-21T01:41:09;7.40;99.90
9193;DHT22;4631;49.296;10.560;2023-11-21T01:43:36;7.40;99.90
9193;DHT22;4631;49.296;10.560;2023-11-21T01:46:03;7.30;99.90
9193;DHT22;4631;49.296;10.560;2023-11-21T01:48:31;7.30;99.90
9193;DHT22;4631;49.296;10.560;2023-11-21T01:50:58;7.40;99.90
9193;DHT22;4631;49.296;10.560;2023-11-21T01:53:26;7.30;99.90
9193;DHT22;4631;49.296;10.560;2023-11-21T01:55:53;7.30;99.90
9193;DHT22;4631;49.296;10.560;2023-11-21T01:58:20;7.30;99.90
9193;DHT22;4631;49.296;10.560;2023-11-21T02:00:47;7.30;99.90
9193;DHT22;4631;49.296;10.560;2023-11-21T02:03:16;7.30;99.90
9193;DHT22;4631;49.296;10.560;2023-11-21T02:05:42;7.30;99.90
9193;DHT22;4631;49.296;10.560;2023-11-21T02:08:09;7.30;99.90
9193;DHT22;4631;49.296;10.560;2023-11-21T02:10:37;7.30;99.90
9193;DHT22;4631;49.296;10.560;2023-11-21T02:13:04;7.30;99.90
9193;DHT22;4631;49.296;10.560;2023-11-21T02:15:31;7.30;99.90
9193;DHT22;4631;49.296;10.560;2023-11-21T02:17:58;7.30;99.90
9193;DHT22;4631;49.296;10.560;2023-11-21T02:20:26;7.30;99.90
9193;DHT22;4631;49.296;10.560;2023-11-21T02:22:56;7.30;99.90
9193;DHT22;4631;49.296;10.560;2023-11-21T02:25:24;7.30;99.90
9193;DHT22;4631;49.296;10.560;2023-11-21T02:27:51;7.30;99.90
9193;DHT22;4631;49.296;10.560;2023-11-21T02:30:19;7.30;99.90
9193;DHT22;4631;49.296;10.560;2023-11-21T02:32:47;7.30;99.90
9193;DHT22;4631;49.296;10.560;2023-11-21T02:35:13;7.30;99.90
9193;DHT22;4631;49.296;10.560;2023-11-21T02:37:41;7.30;99.90
9193;DHT22;4631;49.296;10.560;2023-11-21T02:40:10;7.30;99.90
9193;DHT22;4631;49.296;10.560;2023-11-21T02:42:37;7.40;99.90
9193;DHT22;4631;49.296;10.560;2023-11-21T02:45:05;7.40;99.90
9193;DHT22;4631;49.296;10.560;2023-11-21T02:47:32;7.40;99.90
9193;DHT22;4631;49.296;10.560;2023-11-21T02:49:58;7.40;99.90
9193;DHT22;4631;49.296;10.560;2023-11-21T02:52:25;7.30;99.90
9193;DHT22;4631;49.296;10.560;2023-11-21T02:54:52;7.30;99.90
9193;DHT22;4631;49.296;10.560;2023-11-21T02:57:20;7.40;99.90
9193;DHT22;4631;49.296;10.560;2023-11-21T02:59:47;7.30;99.90
9193;DHT22;4631;49.296;10.560;2023-11-21T03:02:13;7.40;99.90
9193;DHT22;4631;49.296;10.560;2023-11-21T03:04:41;7.30;99.90
9193;DHT22;4631;49.296;10.560;2023-11-21T03:07:07;7.30;99.90
9193;DHT22;4631;49.296;10.560;2023-11-21T03:09:34;7.30;99.90
9193;DHT22;4631;49.296;10.560;2023-11-21T03:12:01;7.30;99.90
9193;DHT22;4631;49.296;10.560;2023-11-21T03:14:29;7.30;99.90
9193;DHT22;4631;49.296;10.560;2023-11-21T03:16:55;7.30;99.90
9193;DHT22;4631;49.296;10.560;2023-11-21T03:19:22;7.30;99.90
9193;DHT22;4631;49.296;10.560;2023-11-21T03:21:49;7.30;99.90
9193;DHT22;4631;49.296;10.560;2023-11-21T03:24:18;7.30;99.90
9193;DHT22;4631;49.296;10.560;2023-11-21T03:26:45;7.30;99.90
9193;DHT22;4631;49.296;10.560;2023-11-21T03:29:11;7.30;99.90
9193;DHT22;4631;49.296;10.560;2023-11-21T03:31:40;7.30;99.90
9193;DHT22;4631;49.296;10.560;2023-11-21T03:34:06;7.30;99.90
9193;DHT22;4631;49.296;10.560;2023-11-21T03:36:33;7.30;99.90
9193;DHT22;4631;49.296;10.560;2023-11-21T03:38:59;7.30;99.90
9193;DHT22;4631;49.296;10.560;2023-11-21T03:41:26;7.30;99.90
9193;DHT22;4631;49.296;10.560;2023-11-21T03:43:53;7.30;99.90
9193;DHT22;4631;49.296;10.560;2023-11-21T03:46:19;7.40;99.90
9193;DHT22;4631;49.296;10.560;2023-11-21T03:48:47;7.40;99.90
9193;DHT22;4631;49.296;10.560;2023-11-21T03:51:14;7.30;99.90
9193;DHT22;4631;49.296;10.560;2023-11-21T03:53:41;7.40;99.90
9193;DHT22;4631;49.296;10.560;2023-11-21T03:56:07;7.40;99.90
9193;DHT22;4631;49.296;10.560;2023-11-21T03:58:34;7.30;99.90
9193;DHT22;4631;49.296;10.560;2023-11-21T04:01:01;7.30;99.90
9193;DHT22;4631;49.296;10.560;2023-11-21T04:03:28;7.40;99.90
9193;DHT22;4631;49.296;10.560;2023-11-21T04:05:56;7.30;99.90
9193;DHT22;4631;49.296;10.560;2023-11-21T04:08:23;7.30;99.90
9193;DHT22;4631;49.296;10.560;2023-11-21T04:10:51;7.30;99.90
9193;DHT22;4631;49.296;10.560;2023-11-21T04:13:18;7.40;99.90
9193;DHT22;4631;49.296;10.560;2023-11-21T04:15:45;7.40;99.90
9193;DHT22;4631;49.296;10.560;2023-11-21T04:18:12;7.40;99.90
9193;DHT22;4631;49.296;10.560;2023-11-21T04:20:38;7.40;99.90
9193;DHT22;4631;49.296;10.560;2023-11-21T04:23:06;7.40;99.90
9193;DHT22;4631;49.296;10.560;2023-11-21T04:25:35;7.40;99.90
9193;DHT22;4631;49.296;10.560;2023-11-21T04:28:02;7.40;99.90
9193;DHT22;4631;49.296;10.560;2023-11-21T04:30:29;7.40;99.90
9193;DHT22;4631;49.296;10.560;2023-11-21T04:32:56;7.40;99.90
9193;DHT22;4631;49.296;10.560;2023-11-21T04:35:22;7.40;99.90
9193;DHT22;4631;49.296;10.560;2023-11-21T04:37:49;7.40;99.90
9193;DHT22;4631;49.296;10.560;2023-11-21T04:40:17;7.40;99.90
9193;DHT22;4631;49.296;10.560;2023-11-21T04:42:46;7.30;99.90
9193;DHT22;4631;49.296;10.560;2023-11-21T04:45:13;7.30;99.90
9193;DHT22;4631;49.296;10.560;2023-11-21T04:47:41;7.30;99.90
9193;DHT22;4631;49.296;10.560;2023-11-21T04:50:09;7.30;99.90
9193;DHT22;4631;49.296;10.560;2023-11-21T04:52:36;7.30;99.90
9193;DHT22;4631;49.296;10.560;2023-11-21T04:55:02;7.30;99.90
9193;DHT22;4631;49.296;10.560;2023-11-21T04:57:30;7.30;99.90
9193;DHT22;4631;49.296;10.560;2023-11-21T04:59:57;7.30;99.90
9193;DHT22;4631;49.296;10.560;2023-11-21T05:02:24;7.30;99.90
9193;DHT22;4631;49.296;10.560;2023-11-21T05:04:50;7.30;99.90
9193;DHT22;4631;49.296;10.560;2023-11-21T05:07:18;7.20;99.90
9193;DHT22;4631;49.296;10.560;2023-11-21T05:09:45;7.30;99.90
9193;DHT22;4631;49.296;10.560;2023-11-21T05:12:11;7.20;99.90
9193;DHT22;4631;49.296;10.560;2023-11-21T05:14:41;7.30;99.90
9193;DHT22;4631;49.296;10.560;2023-11-21T05:17:08;7.20;99.90
9193;DHT22;4631;49.296;10.560;2023-11-21T05:19:35;7.20;99.90
9193;DHT22;4631;49.296;10.560;2023-11-21T05:22:01;7.20;99.90
9193;DHT22;4631;49.296;10.560;2023-11-21T05:24:28;7.20;99.90
9193;DHT22;4631;49.296;10.560;2023-11-21T05:26:55;7.30;99.90
9193;DHT22;4631;49.296;10.560;2023-11-21T05:29:22;7.30;99.90
9193;DHT22;4631;49.296;10.560;2023-11-21T05:31:50;7.30;99.90
9193;DHT22;4631;49.296;10.560;2023-11-21T05:34:16;7.30;99.90
9193;DHT22;4631;49.296;10.560;2023-11-21T05:36:43;7.30;99.90
9193;DHT22;4631;49.296;10.560;2023-11-21T05:39:11;7.30;99.90
9193;DHT22;4631;49.296;10.560;2023-11-21T05:41:37;7.30;99.90
9193;DHT22;4631;49.296;10.560;2023-11-21T05:44:04;7.30;99.90
9193;DHT22;4631;49.296;10.560;2023-11-21T05:46:31;7.20;99.90
9193;DHT22;4631;49.296;10.560;2023-11-21T05:48:59;7.20;99.90
9193;DHT22;4631;49.296;10.560;2023-11-21T05:51:26;7.20;99.90
9193;DHT22;4631;49.296;10.560;2023-11-21T05:53:52;7.20;99.90
9193;DHT22;4631;49.296;10.560;2023-11-21T05:56:19;7.30;99.90
9193;DHT22;4631;49.296;10.560;2023-11-21T05:58:46;7.20;99.90
9193;DHT22;4631;49.296;10.560;2023-11-21T06:01:12;7.30;99.90
9193;DHT22;4631;49.296;10.560;2023-11-21T06:03:39;7.20;99.90
9193;DHT22;4631;49.296;10.560;2023-11-21T06:06:08;7.30;99.90
9193;DHT22;4631;49.296;10.560;2023-11-21T06:08:34;7.30;99.90
9193;DHT22;4631;49.296;10.560;2023-11-21T06:11:01;7.30;99.90
9193;DHT22;4631;49.296;10.560;2023-11-21T06:13:28;7.30;99.90
9193;DHT22;4631;49.296;10.560;2023-11-21T06:15:55;7.30;99.90
9193;DHT22;4631;49.296;10.560;2023-11-21T06:18:22;7.20;99.90
9193;DHT22;4631;49.296;10.560;2023-11-21T06:20:49;7.10;99.90
9193;DHT22;4631;49.296;10.560;2023-11-21T06:23:17;7.10;99.90
9193;DHT22;4631;49.296;10.560;2023-11-21T06:25:43;7.10;99.90
9193;DHT22;4631;49.296;10.560;2023-11-21T06:28:10;7.20;99.90
9193;DHT22;4631;49.296;10.560;2023-11-21T06:30:37;7.10;99.90
9193;DHT22;4631;49.296;10.560;2023-11-21T06:33:03;7.10;99.90
9193;DHT22;4631;49.296;10.560;2023-11-21T06:35:31;7.20;99.90
9193;DHT22;4631;49.296;10.560;2023-11-21T06:38:00;7.20;99.90
9193;DHT22;4631;49.296;10.560;2023-11-21T06:40:28;7.20;99.90
9193;DHT22;4631;49.296;10.560;2023-11-21T06:42:55;7.20;99.90
9193;DHT22;4631;49.296;10.560;2023-11-21T06:45:24;7.20;99.90
9193;DHT22;4631;49.296;10.560;2023-11-21T06:47:50;7.20;99.90
9193;DHT22;4631;49.296;10.560;2023-11-21T06:50:17;7.30;99.90
9193;DHT22;4631;49.296;10.560;2023-11-21T06:52:44;7.20;99.90
9193;DHT22;4631;49.296;10.560;2023-11-21T06:55:10;7.20;99.90
9193;DHT22;4631;49.296;10.560;2023-11-21T06:57:38;7.20;99.90
9193;DHT22;4631;49.296;10.560;2023-11-21T07:00:05;7.20;99.90
9193;DHT22;4631;49.296;10.560;2023-11-21T07:02:34;7.20;99.90
9193;DHT22;4631;49.296;10.560;2023-11-21T07:05:00;7.20;99.90
9193;DHT22;4631;49.296;10.560;2023-11-21T07:07:27;7.20;99.90
9193;DHT22;4631;49.296;10.560;2023-11-21T07:09:54;7.20;99.90
9193;DHT22;4631;49.296;10.560;2023-11-21T07:12:20;7.20;99.90
9193;DHT22;4631;49.296;10.560;2023-11-21T07:14:50;7.20;99.90
9193;DHT22;4631;49.296;10.560;2023-11-21T07:17:16;7.20;99.90
9193;DHT22;4631;49.296;10.560;2023-11-21T07:19:43;7.20;99.90
9193;DHT22;4631;49.296;10.560;2023-11-21T07:22:10;7.30;99.90
9193;DHT22;4631;49.296;10.560;2023-11-21T07:24:39;7.30;99.90
9193;DHT22;4631;49.296;10.560;2023-11-21T07:27:06;7.30;99.90
9193;DHT22;4631;49.296;10.560;2023-11-21T07:29:32;7.30;99.90
9193;DHT22;4631;49.296;10.560;2023-11-21T07:32:01;7.30;99.90
9193;DHT22;4631;49.296;10.560;2023-11-21T07:34:27;7.40;99.90
9193;DHT22;4631;49.296;10.560;2023-11-21T07:36:54;7.40;99.90
9193;DHT22;4631;49.296;10.560;2023-11-21T07:39:20;7.40;99.90
9193;DHT22;4631;49.296;10.560;2023-11-21T07:41:47;7.40;99.90
9193;DHT22;4631;49.296;10.560;2023-11-21T07:44:15;7.40;99.90
9193;DHT22;4631;49.296;10.560;2023-11-21T07:46:42;7.40;99.90
9193;DHT22;4631;49.296;10.560;2023-11-21T07:49:10;7.50;99.90
9193;DHT22;4631;49.296;10.560;2023-11-21T07:51:40;7.50;99.90
9193;DHT22;4631;49.296;10.560;2023-11-21T07:54:06;7.50;99.90
9193;DHT22;4631;49.296;10.560;2023-11-21T07:56:33;7.50;99.90
9193;DHT22;4631;49.296;10.560;2023-11-21T07:59:00;7.50;99.90
9193;DHT22;4631;49.296;10.560;2023-11-21T08:01:26;7.50;99.90
9193;DHT22;4631;49.296;10.560;2023-11-21T08:03:53;7.50;99.90
9193;DHT22;4631;49.296;10.560;2023-11-21T08:06:23;7.50;99.90
9193;DHT22;4631;49.296;10.560;2023-11-21T08:08:51;7.50;99.90
9193;DHT22;4631;49.296;10.560;2023-11-21T08:11:17;7.60;99.90
9193;DHT22;4631;49.296;10.560;2023-11-21T08:13:44;7.50;99.90
9193;DHT22;4631;49.296;10.560;2023-11-21T08:16:12;7.60;99.90
9193;DHT22;4631;49.296;10.560;2023-11-21T08:18:38;7.60;99.90
9193;DHT22;4631;49.296;10.560;2023-11-21T08:21:05;7.60;99.90
9193;DHT22;4631;49.296;10.560;2023-11-21T08:23:34;7.60;99.90
9193;DHT22;4631;49.296;10.560;2023-11-21T08:26:01;7.60;99.90
9193;DHT22;4631;49.296;10.560;2023-11-21T08:28:28;7.70;99.90
9193;DHT22;4631;49.296;10.560;2023-11-21T08:30:55;7.70;99.90
9193;DHT22;4631;49.296;10.560;2023-11-21T08:33:22;7.70;99.90
9193;DHT22;4631;49.296;10.560;2023-11-21T08:35:49;7.70;99.90
9193;DHT22;4631;49.296;10.560;2023-11-21T08:38:15;7.70;99.90
9193;DHT22;4631;49.296;10.560;2023-11-21T08:40:44;7.70;99.90
9193;DHT22;4631;49.296;10.560;2023-11-21T08:43:11;7.70;99.90
9193;DHT22;4631;49.296;10.560;2023-11-21T08:45:39;7.70;99.90
9193;DHT22;4631;49.296;10.560;2023-11-21T08:48:05;7.70;99.90
9193;DHT22;4631;49.296;10.560;2023-11-21T08:50:32;7.70;99.90
9193;DHT22;4631;49.296;10.560;2023-11-21T08:52:59;7.70;99.90
9193;DHT22;4631;49.296;10.560;2023-11-21T08:55:26;7.80;99.90
9193;DHT22;4631;49.296;10.560;2023-11-21T08:57:55;7.80;99.90
9193;DHT22;4631;49.296;10.560;2023-11-21T09:00:24;7.80;99.90
9193;DHT22;4631;49.296;10.560;2023-11-21T09:02:50;7.90;99.90
9193;DHT22;4631;49.296;10.560;2023-11-21T09:05:17;7.90;99.90
9193;DHT22;4631;49.296;10.560;2023-11-21T09:07:46;8.00;99.90
9193;DHT22;4631;49.296;10.560;2023-11-21T09:10:14;8.00;99.90
9193;DHT22;4631;49.296;10.560;2023-11-21T09:12:40;8.00;99.90
9193;DHT22;4631;49.296;10.560;2023-11-21T09:15:10;8.10;99.90
9193;DHT22;4631;49.296;10.560;2023-11-21T09:17:37;8.10;99.90
9193;DHT22;4631;49.296;10.560;2023-11-21T09:20:04;8.10;99.90
9193;DHT22;4631;49.296;10.560;2023-11-21T09:22:31;8.20;99.90
9193;DHT22;4631;49.296;10.560;2023-11-21T09:24:57;8.20;99.90
9193;DHT22;4631;49.296;10.560;2023-11-21T09:27:24;8.20;99.90
9193;DHT22;4631;49.296;10.560;2023-11-21T09:29:51;8.30;99.90
9193;DHT22;4631;49.296;10.560;2023-11-21T09:32:19;8.30;99.90
9193;DHT22;4631;49.296;10.560;2023-11-21T09:34:47;8.30;99.90
9193;DHT22;4631;49.296;10.560;2023-11-21T09:37:13;8.30;99.90
9193;DHT22;4631;49.296;10.560;2023-11-21T09:39:40;8.30;99.90
9193;DHT22;4631;49.296;10.560;2023-11-21T09:42:08;8.30;99.90
9193;DHT22;4631;49.296;10.560;2023-11-21T09:44:39;8.30;99.90
9193;DHT22;4631;49.296;10.560;2023-11-21T09:47:10;8.30;99.90
9193;DHT22;4631;49.296;10.560;2023-11-21T09:49:42;8.30;99.90
9193;DHT22;4631;49.296;10.560;2023-11-21T09:52:13;8.40;99.90
9193;DHT22;4631;49.296;10.560;2023-11-21T09:54:44;8.40;99.90
9193;DHT22;4631;49.296;10.560;2023-11-21T09:57:13;8.40;99.90
9193;DHT22;4631;49.296;10.560;2023-11-21T09:59:41;8.40;99.90
9193;DHT22;4631;49.296;10.560;2023-11-21T10:02:08;8.40;99.90
9193;DHT22;4631;49.296;10.560;2023-11-21T10:04:38;8.40;99.90
9193;DHT22;4631;49.296;10.560;2023-11-21T10:07:06;8.50;99.90
9193;DHT22;4631;49.296;10.560;2023-11-21T10:09:34;8.50;99.90
9193;DHT22;4631;49.296;10.560;2023-11-21T10:12:02;8.50;99.90
9193;DHT22;4631;49.296;10.560;2023-11-21T10:14:31;8.50;99.90
9193;DHT22;4631;49.296;10.560;2023-11-21T10:16:59;8.60;99.90
9193;DHT22;4631;49.296;10.560;2023-11-21T10:19:27;8.60;99.90
9193;DHT22;4631;49.296;10.560;2023-11-21T10:21:54;8.60;99.90
9193;DHT22;4631;49.296;10.560;2023-11-21T10:24:24;8.60;99.90
9193;DHT22;4631;49.296;10.560;2023-11-21T10:26:51;8.60;99.90
9193;DHT22;4631;49.296;10.560;2023-11-21T10:29:19;8.60;99.90
9193;DHT22;4631;49.296;10.560;2023-11-21T10:31:48;8.50;99.90
9193;DHT22;4631;49.296;10.560;2023-11-21T10:34:15;8.50;99.90
9193;DHT22;4631;49.296;10.560;2023-11-21T10:36:42;8.50;99.90
9193;DHT22;4631;49.296;10.560;2023-11-21T10:39:09;8.40;99.90
9193;DHT22;4631;49.296;10.560;2023-11-21T10:41:37;8.50;99.90
9193;DHT22;4631;49.296;10.560;2023-11-21T10:44:05;8.40;99.90
9193;DHT22;4631;49.296;10.560;2023-11-21T10:46:32;8.40;99.90
9193;DHT22;4631;49.296;10.560;2023-11-21T10:48:59;8.40;99.90
9193;DHT22;4631;49.296;10.560;2023-11-21T10:51:27;8.40;99.90
9193;DHT22;4631;49.296;10.560;2023-11-21T10:53:53;8.40;99.90
9193;DHT22;4631;49.296;10.560;2023-11-21T10:56:21;8.40;99.90
9193;DHT22;4631;49.296;10.560;2023-11-21T10:58:50;8.50;99.90
9193;DHT22;4631;49.296;10.560;2023-11-21T11:01:17;8.50;99.90
9193;DHT22;4631;49.296;10.560;2023-11-21T11:03:46;8.50;99.90
9193;DHT22;4631;49.296;10.560;2023-11-21T11:06:13;8.60;99.90
9193;DHT22;4631;49.296;10.560;2023-11-21T11:08:40;8.60;99.90
9193;DHT22;4631;49.296;10.560;2023-11-21T11:11:07;8.50;99.90
9193;DHT22;4631;49.296;10.560;2023-11-21T11:13:35;8.50;99.90
9193;DHT22;4631;49.296;10.560;2023-11-21T11:16:04;8.50;99.90
9193;DHT22;4631;49.296;10.560;2023-11-21T11:18:33;8.60;99.90
9193;DHT22;4631;49.296;10.560;2023-11-21T11:21:01;8.60;99.90
9193;DHT22;4631;49.296;10.560;2023-11-21T11:23:37;8.70;99.90
9193;DHT22;4631;49.296;10.560;2023-11-21T11:26:11;8.70;99.90
9193;DHT22;4631;49.296;10.560;2023-11-21T11:28:43;8.70;99.90
9193;DHT22;4631;49.296;10.560;2023-11-21T11:31:14;8.70;99.90
9193;DHT22;4631;49.296;10.560;2023-11-21T11:33:45;8.70;99.90
9193;DHT22;4631;49.296;10.560;2023-11-21T11:36:15;8.70;99.90
9193;DHT22;4631;49.296;10.560;2023-11-21T11:38:45;8.70;99.90
9193;DHT22;4631;49.296;10.560;2023-11-21T11:41:12;8.70;99.90
9193;DHT22;4631;49.296;10.560;2023-11-21T11:43:38;8.80;99.90
9193;DHT22;4631;49.296;10.560;2023-11-21T11:46:09;8.70;99.90
9193;DHT22;4631;49.296;10.560;2023-11-21T11:48:39;8.80;99.90
9193;DHT22;4631;49.296;10.560;2023-11-21T11:51:09;8.80;99.90
9193;DHT22;4631;49.296;10.560;2023-11-21T11:53:37;8.90;99.90
9193;DHT22;4631;49.296;10.560;2023-11-21T11:56:23;8.90;99.90
9193;DHT22;4631;49.296;10.560;2023-11-21T11:58:51;8.90;99.90
9193;DHT22;4631;49.296;10.560;2023-11-21T12:01:18;8.90;99.90
9193;DHT22;4631;49.296;10.560;2023-11-21T12:03:50;9.00;99.90
9193;DHT22;4631;49.296;10.560;2023-11-21T12:06:39;9.00;99.90
9193;DHT22;4631;49.296;10.560;2023-11-21T12:09:07;9.00;99.90
9193;DHT22;4631;49.296;10.560;2023-11-21T12:11:40;9.00;99.90
9193;DHT22;4631;49.296;10.560;2023-11-21T12:14:09;9.00;99.90
9193;DHT22;4631;49.296;10.560;2023-11-21T12:16:35;9.00;99.90
9193;DHT22;4631;49.296;10.560;2023-11-21T12:19:04;9.00;99.90
9193;DHT22;4631;49.296;10.560;2023-11-21T12:21:30;9.00;99.90
9193;DHT22;4631;49.296;10.560;2023-11-21T12:23:57;9.00;99.90
9193;DHT22;4631;49.296;10.560;2023-11-21T12:26:24;9.00;99.90
9193;DHT22;4631;49.296;10.560;2023-11-21T12:28:51;9.00;99.90
9193;DHT22;4631;49.296;10.560;2023-11-21T12:31:21;9.00;99.90
9193;DHT22;4631;49.296;10.560;2023-11-21T12:33:47;9.00;99.90
9193;DHT22;4631;49.296;10.560;2023-11-21T12:36:15;9.00;99.90
9193;DHT22;4631;49.296;10.560;2023-11-21T12:38:42;9.00;99.90
9193;DHT22;4631;49.296;10.560;2023-11-21T12:41:09;8.90;99.90
9193;DHT22;4631;49.296;10.560;2023-11-21T12:43:36;8.90;99.90
9193;DHT22;4631;49.296;10.560;2023-11-21T12:46:05;8.90;99.90
9193;DHT22;4631;49.296;10.560;2023-11-21T12:48:32;9.00;99.90
9193;DHT22;4631;49.296;10.560;2023-11-21T12:50:58;9.00;99.90
9193;DHT22;4631;49.296;10.560;2023-11-21T12:53:26;9.00;99.90
9193;DHT22;4631;49.296;10.560;2023-11-21T12:56:02;9.00;99.90
9193;DHT22;4631;49.296;10.560;2023-11-21T12:58:29;9.10;99.90
9193;DHT22;4631;49.296;10.560;2023-11-21T13:00:55;9.00;99.90
9193;DHT22;4631;49.296;10.560;2023-11-21T13:03:25;9.10;99.90
9193;DHT22;4631;49.296;10.560;2023-11-21T13:05:52;9.10;99.90
9193;DHT22;4631;49.296;10.560;2023-11-21T13:08:20;9.10;99.90
9193;DHT22;4631;49.296;10.560;2023-11-21T13:10:50;9.10;99.90
9193;DHT22;4631;49.296;10.560;2023-11-21T13:13:17;9.00;99.90
9193;DHT22;4631;49.296;10.560;2023-11-21T13:15:47;9.00;99.90
9193;DHT22;4631;49.296;10.560;2023-11-21T13:18:14;9.00;99.90
9193;DHT22;4631;49.296;10.560;2023-11-21T13:20:41;9.00;99.90
9193;DHT22;4631;49.296;10.560;2023-11-21T13:23:09;8.90;99.90
9193;DHT22;4631;49.296;10.560;2023-11-21T13:25:37;8.90;99.90
9193;DHT22;4631;49.296;10.560;2023-11-21T13:28:07;8.90;99.90
9193;DHT22;4631;49.296;10.560;2023-11-21T13:30:35;9.00;99.90
9193;DHT22;4631;49.296;10.560;2023-11-21T13:33:02;9.00;99.90
9193;DHT22;4631;49.296;10.560;2023-11-21T13:35:32;9.10;99.90
9193;DHT22;4631;49.296;10.560;2023-11-21T13:38:03;9.10;99.90
9193;DHT22;4631;49.296;10.560;2023-11-21T13:40:32;9.20;99.90
9193;DHT22;4631;49.296;10.560;2023-11-21T13:43:05;9.20;99.90
9193;DHT22;4631;49.296;10.560;2023-11-21T13:45:36;9.10;99.90
9193;DHT22;4631;49.296;10.560;2023-11-21T13:48:05;9.10;99.90
9193;DHT22;4631;49.296;10.560;2023-11-21T13:50:35;9.10;99.90
9193;DHT22;4631;49.296;10.560;2023-11-21T13:53:02;9.20;99.90
9193;DHT22;4631;49.296;10.560;2023-11-21T13:55:36;9.20;99.90
9193;DHT22;4631;49.296;10.560;2023-11-21T13:58:03;9.30;99.90
9193;DHT22;4631;49.296;10.560;2023-11-21T14:00:34;9.40;99.90
9193;DHT22;4631;49.296;10.560;2023-11-21T14:03:12;9.50;99.90
9193;DHT22;4631;49.296;10.560;2023-11-21T14:05:47;9.50;99.90
9193;DHT22;4631;49.296;10.560;2023-11-21T14:08:17;9.50;99.90
9193;DHT22;4631;49.296;10.560;2023-11-21T14:10:45;9.40;99.90
9193;DHT22;4631;49.296;10.560;2023-11-21T14:13:16;9.40;99.90
9193;DHT22;4631;49.296;10.560;2023-11-21T14:15:43;9.40;99.90
9193;DHT22;4631;49.296;10.560;2023-11-21T14:18:12;9.30;99.90
9193;DHT22;4631;49.296;10.560;2023-11-21T14:20:42;9.20;99.90
9193;DHT22;4631;49.296;10.560;2023-11-21T14:23:09;9.20;99.90
9193;DHT22;4631;49.296;10.560;2023-11-21T14:25:37;9.20;99.90
9193;DHT22;4631;49.296;10.560;2023-11-21T14:28:04;9.20;99.90
9193;DHT22;4631;49.296;10.560;2023-11-21T14:30:31;9.10;99.90
9193;DHT22;4631;49.296;10.560;2023-11-21T14:33:00;9.10;99.90
9193;DHT22;4631;49.296;10.560;2023-11-21T14:35:28;9.10;99.90
9193;DHT22;4631;49.296;10.560;2023-11-21T14:37:57;9.00;99.90
9193;DHT22;4631;49.296;10.560;2023-11-21T14:40:25;9.00;99.90
9193;DHT22;4631;49.296;10.560;2023-11-21T14:42:58;8.90;99.90
9193;DHT22;4631;49.296;10.560;2023-11-21T14:45:25;8.90;99.90
9193;DHT22;4631;49.296;10.560;2023-11-21T14:47:52;8.90;99.90
9193;DHT22;4631;49.296;10.560;2023-11-21T14:50:32;8.80;99.90
9193;DHT22;4631;49.296;10.560;2023-11-21T14:53:40;8.80;99.90
9193;DHT22;4631;49.296;10.560;2023-11-21T14:56:09;8.80;99.90
9193;DHT22;4631;49.296;10.560;2023-11-21T14:58:36;8.80;99.90
9193;DHT22;4631;49.296;10.560;2023-11-21T15:01:04;8.80;99.90
9193;DHT22;4631;49.296;10.560;2023-11-21T15:03:31;8.70;99.90
9193;DHT22;4631;49.296;10.560;2023-11-21T15:06:10;8.70;99.90
9193;DHT22;4631;49.296;10.560;2023-11-21T15:08:52;8.70;99.90
9193;DHT22;4631;49.296;10.560;2023-11-21T15:11:26;8.70;99.90
9193;DHT22;4631;49.296;10.560;2023-11-21T15:13:56;8.70;99.90
9193;DHT22;4631;49.296;10.560;2023-11-21T15:16:22;8.70;99.90
9193;DHT22;4631;49.296;10.560;2023-11-21T15:18:48;8.70;99.90
9193;DHT22;4631;49.296;10.560;2023-11-21T15:21:16;8.60;99.90
9193;DHT22;4631;49.296;10.560;2023-11-21T15:23:43;8.60;99.90
9193;DHT22;4631;49.296;10.560;2023-11-21T15:26:10;8.60;99.90
9193;DHT22;4631;49.296;10.560;2023-11-21T15:28:36;8.60;99.90
9193;DHT22;4631;49.296;10.560;2023-11-21T15:31:03;8.60;99.90
9193;DHT22;4631;49.296;10.560;2023-11-21T15:33:30;8.50;99.90
9193;DHT22;4631;49.296;10.560;2023-11-21T15:35:56;8.50;99.90
9193;DHT22;4631;49.296;10.560;2023-11-21T15:38:25;8.50;99.90
9193;DHT22;4631;49.296;10.560;2023-11-21T15:40:52;8.50;99.90
9193;DHT22;4631;49.296;10.560;2023-11-21T15:43:19;8.50;99.90
9193;DHT22;4631;49.296;10.560;2023-11-21T15:45:46;8.50;99.90
9193;DHT22;4631;49.296;10.560;2023-11-21T15:48:12;8.50;99.90
9193;DHT22;4631;49.296;10.560;2023-11-21T15:50:41;8.50;99.90
9193;DHT22;4631;49.296;10.560;2023-11-21T15:53:08;8.40;99.90
9193;DHT22;4631;49.296;10.560;2023-11-21T15:55:36;8.40;99.90
9193;DHT22;4631;49.296;10.560;2023-11-21T15:58:07;8.40;99.90
9193;DHT22;4631;49.296;10.560;2023-11-21T16:00:34;8.40;99.90
9193;DHT22;4631;49.296;10.560;2023-11-21T16:03:02;8.40;99.90
9193;DHT22;4631;49.296;10.560;2023-11-21T16:05:29;8.30;99.90